createdAt,value
2019-06-27T00:00:43.428Z,431.10
2019-06-27T00:03:09.612Z,506.97
2019-06-27T00:05:35.696Z,426.75
2019-06-27T00:08:01.768Z,450.00
2019-06-27T00:10:27.878Z,450.90
2019-06-27T00:12:54.032Z,422.77
2019-06-27T00:15:20.112Z,434.00
2019-06-27T00:17:46.204Z,421.98
2019-06-27T00:20:12.488Z,444.05
2019-06-27T00:22:41.141Z,423.58
2019-06-27T00:25:06.730Z,423.75
2019-06-27T00:27:33.100Z,452.88
2019-06-27T00:29:59.171Z,432.25
2019-06-27T00:32:25.287Z,434.07
2019-06-27T00:34:51.460Z,400.48
2019-06-27T00:37:17.532Z,439.73
2019-06-27T00:39:43.629Z,421.20
2019-06-27T00:42:09.805Z,443.80
2019-06-27T00:44:35.892Z,387.45
2019-06-27T00:47:02.098Z,427.23
2019-06-27T00:49:28.168Z,457.45
2019-06-27T00:51:54.288Z,423.97
2019-06-27T00:54:20.380Z,438.98
2019-06-27T00:56:46.453Z,435.73
2019-06-27T00:59:12.528Z,405.57
2019-06-27T01:01:38.657Z,426.25
2019-06-27T01:04:04.730Z,382.30
2019-06-27T01:06:30.805Z,419.17
2019-06-27T01:08:56.908Z,407.12
2019-06-27T01:11:23.071Z,404.05
2019-06-27T01:13:49.260Z,420.02
2019-06-27T01:16:15.328Z,389.70
2019-06-27T01:18:41.422Z,428.88
2019-06-27T01:21:07.840Z,416.48
2019-06-27T01:23:33.937Z,415.45
2019-06-27T01:26:00.038Z,459.75
2019-06-27T01:28:26.143Z,428.55
2019-06-27T01:30:52.595Z,422.15
2019-06-27T01:33:18.703Z,451.15
2019-06-27T01:35:44.764Z,419.17
2019-06-27T01:38:10.826Z,429.98
2019-06-27T01:40:36.922Z,412.52
2019-06-27T01:43:02.998Z,431.60
2019-06-27T01:45:30.969Z,420.52
2019-06-27T01:47:57.068Z,419.20
2019-06-27T01:50:23.114Z,424.48
2019-06-27T01:52:49.185Z,424.58
2019-06-27T01:55:15.395Z,438.48
2019-06-27T01:57:46.611Z,419.15
2019-06-27T02:00:10.317Z,405.83
2019-06-27T02:02:36.585Z,399.07
2019-06-27T02:05:05.626Z,369.23
2019-06-27T02:07:31.667Z,375.68
2019-06-27T02:09:58.068Z,366.38
2019-06-27T02:12:24.141Z,388.68
2019-06-27T02:14:50.295Z,393.20
2019-06-27T02:17:16.388Z,388.48
2019-06-27T02:19:42.461Z,391.77
2019-06-27T02:22:08.544Z,414.67
2019-06-27T02:24:34.708Z,422.25
2019-06-27T02:27:00.789Z,380.52
2019-06-27T02:29:26.847Z,412.75
2019-06-27T02:31:52.955Z,385.38
2019-06-27T02:34:19.190Z,399.15
2019-06-27T02:36:45.402Z,381.95
2019-06-27T02:39:11.583Z,375.27
2019-06-27T02:41:37.657Z,411.28
2019-06-27T02:44:03.754Z,402.88
2019-06-27T02:46:29.827Z,435.32
2019-06-27T02:48:55.933Z,396.00
2019-06-27T02:51:22.090Z,419.40
2019-06-27T02:53:48.237Z,438.93
2019-06-27T02:56:14.330Z,443.52
2019-06-27T02:58:40.405Z,402.37
2019-06-27T03:01:06.578Z,426.40
2019-06-27T03:03:32.721Z,405.48
2019-06-27T03:05:58.844Z,389.70
2019-06-27T03:08:25.035Z,395.35
2019-06-27T03:10:51.111Z,386.90
2019-06-27T03:13:17.620Z,391.73
2019-06-27T03:15:43.797Z,410.00
2019-06-27T03:18:10.061Z,482.98
2019-06-27T03:20:36.147Z,417.03
2019-06-27T03:23:02.240Z,403.12
2019-06-27T03:25:28.339Z,407.58
2019-06-27T03:27:54.413Z,414.40
2019-06-27T03:30:20.867Z,401.75
2019-06-27T03:32:47.021Z,412.45
2019-06-27T03:35:16.474Z,410.95
2019-06-27T03:37:43.420Z,398.40
2019-06-27T03:40:09.946Z,405.27
2019-06-27T03:42:36.130Z,419.85
2019-06-27T03:45:04.229Z,382.80
2019-06-27T03:47:30.308Z,423.23
2019-06-27T03:49:56.397Z,387.38
2019-06-27T03:52:22.542Z,411.75
2019-06-27T03:54:48.709Z,388.10
2019-06-27T03:57:14.795Z,404.92
2019-06-27T03:59:40.870Z,394.23
2019-06-27T04:02:07.075Z,387.15
2019-06-27T04:04:33.237Z,494.52
2019-06-27T04:06:59.322Z,450.12
2019-06-27T04:09:25.397Z,439.63
2019-06-27T04:11:51.485Z,425.55
2019-06-27T04:14:17.601Z,364.42
2019-06-27T04:16:48.617Z,417.33
2019-06-27T04:19:11.735Z,389.15
2019-06-27T04:21:37.805Z,418.40
2019-06-27T04:24:04.260Z,433.23
2019-06-27T04:26:30.592Z,397.10
2019-06-27T04:28:57.023Z,410.30
2019-06-27T04:31:24.101Z,399.35
2019-06-27T04:33:50.293Z,436.70
2019-06-27T04:36:16.747Z,511.60
2019-06-27T04:38:42.932Z,447.63
2019-06-27T04:41:09.119Z,413.70
2019-06-27T04:43:35.306Z,446.35
2019-06-27T04:46:01.714Z,492.95
2019-06-27T04:48:28.076Z,405.98
2019-06-27T04:50:54.508Z,433.23
2019-06-27T04:53:20.941Z,430.35
2019-06-27T04:55:47.380Z,436.17
2019-06-27T04:58:13.808Z,406.87
2019-06-27T05:00:40.241Z,454.90
2019-06-27T05:03:08.016Z,516.40
2019-06-27T05:05:34.445Z,506.65
2019-06-27T05:08:02.619Z,478.23
2019-06-27T05:10:28.728Z,506.85
2019-06-27T05:12:55.185Z,466.45
2019-06-27T05:15:40.234Z,442.45
2019-06-27T05:18:06.295Z,450.90
2019-06-27T05:20:32.804Z,439.00
2019-06-27T05:22:58.843Z,476.40
2019-06-27T05:25:25.259Z,538.08
2019-06-27T05:27:51.336Z,564.95
2019-06-27T05:30:17.717Z,535.00
2019-06-27T05:32:44.104Z,476.02
2019-06-27T05:35:10.579Z,441.60
2019-06-27T05:37:36.665Z,449.20
2019-06-27T05:40:06.615Z,415.15
2019-06-27T05:42:32.686Z,408.00
2019-06-27T05:44:59.185Z,402.05
2019-06-27T05:47:25.223Z,405.55
2019-06-27T05:49:51.272Z,433.65
2019-06-27T05:52:17.479Z,495.82
2019-06-27T05:54:43.915Z,531.00
2019-06-27T05:57:10.062Z,554.00
2019-06-27T05:59:36.452Z,459.95
2019-06-27T06:02:02.677Z,470.82
2019-06-27T06:04:29.115Z,504.90
2019-06-27T06:06:55.551Z,522.23
2019-06-27T06:09:21.993Z,555.27
2019-06-27T06:11:48.427Z,506.45
2019-06-27T06:14:14.867Z,485.90
2019-06-27T06:16:41.300Z,511.17
2019-06-27T06:19:07.831Z,564.67
2019-06-27T06:21:34.352Z,543.77
2019-06-27T06:24:00.795Z,543.77
2019-06-27T06:26:27.220Z,519.75
2019-06-27T06:28:53.548Z,575.80
2019-06-27T06:31:19.637Z,543.97
2019-06-27T06:33:46.024Z,656.00
2019-06-27T06:36:12.336Z,635.92
2019-06-27T06:38:38.691Z,643.77
2019-06-27T06:41:05.209Z,644.80
2019-06-27T06:43:31.653Z,618.60
2019-06-27T06:45:58.168Z,632.77
2019-06-27T06:48:24.232Z,639.23
2019-06-27T06:50:50.310Z,649.88
2019-06-27T06:53:16.652Z,663.08
2019-06-27T06:55:43.094Z,673.33
2019-06-27T06:58:09.520Z,577.60
2019-06-27T07:00:35.592Z,641.92
2019-06-27T07:03:01.921Z,654.95
2019-06-27T07:05:28.410Z,660.10
2019-06-27T07:07:54.840Z,651.73
2019-06-27T07:10:21.288Z,640.08
2019-06-27T07:12:47.710Z,636.30
2019-06-27T07:15:14.348Z,610.83
2019-06-27T07:17:40.534Z,695.20
2019-06-27T07:20:08.240Z,673.92
2019-06-27T07:22:34.679Z,692.60
2019-06-27T07:25:00.756Z,690.00
2019-06-27T07:27:27.128Z,719.85
2019-06-27T07:29:53.567Z,703.80
2019-06-27T07:32:20.003Z,721.35
2019-06-27T07:34:46.188Z,694.62
2019-06-27T07:37:12.657Z,668.80
2019-06-27T07:39:38.728Z,688.25
2019-06-27T07:42:05.174Z,676.85
2019-06-27T07:44:31.650Z,672.92
2019-06-27T07:46:57.997Z,648.50
2019-06-27T07:49:24.413Z,650.67
2019-06-27T07:51:50.740Z,696.22
2019-06-27T07:54:17.278Z,705.10
2019-06-27T07:56:46.177Z,716.20
2019-06-27T07:59:11.433Z,709.55
2019-06-27T08:01:37.528Z,735.23
2019-06-27T08:04:03.970Z,689.75
2019-06-27T08:06:30.194Z,709.27
2019-06-27T08:08:57.014Z,731.20
2019-06-27T08:11:23.565Z,703.73
2019-06-27T08:13:50.073Z,737.90
2019-06-27T08:16:16.719Z,703.65
2019-06-27T08:18:43.289Z,717.53
2019-06-27T08:21:09.897Z,749.12
2019-06-27T08:23:41.573Z,753.30
2019-06-27T08:26:04.296Z,756.83
2019-06-27T08:28:32.795Z,774.15
2019-06-27T08:30:58.956Z,772.52
2019-06-27T08:33:25.431Z,787.35
2019-06-27T08:35:51.496Z,786.42
2019-06-27T08:38:17.583Z,762.88
2019-06-27T08:40:43.934Z,739.73
2019-06-27T08:43:10.095Z,783.27
2019-06-27T08:45:36.263Z,777.52
2019-06-27T08:48:02.448Z,752.83
2019-06-27T08:50:28.544Z,747.60
2019-06-27T08:52:54.976Z,739.00
2019-06-27T08:55:21.537Z,755.85
2019-06-27T08:57:47.927Z,780.03
2019-06-27T09:00:16.503Z,749.92
2019-06-27T09:02:42.935Z,754.87
2019-06-27T09:05:10.307Z,765.60
2019-06-27T09:07:36.827Z,771.48
2019-06-27T09:10:07.444Z,762.65
2019-06-27T09:12:33.622Z,761.50
2019-06-27T09:15:00.017Z,767.35
2019-06-27T09:17:26.181Z,770.45
2019-06-27T09:19:52.298Z,777.65
2019-06-27T09:22:18.706Z,774.20
2019-06-27T09:24:45.036Z,805.15
2019-06-27T09:27:11.472Z,804.55
2019-06-27T09:29:37.907Z,800.80
2019-06-27T09:32:04.436Z,766.45
2019-06-27T09:34:30.868Z,799.40
2019-06-27T09:36:57.309Z,813.67
2019-06-27T09:39:26.850Z,815.30
2019-06-27T09:41:52.053Z,821.55
2019-06-27T09:44:18.197Z,794.95
2019-06-27T09:46:44.577Z,790.45
2019-06-27T09:49:10.654Z,819.88
2019-06-27T09:51:37.036Z,806.87
2019-06-27T09:54:03.515Z,835.33
2019-06-27T09:56:29.612Z,823.27
2019-06-27T09:58:56.025Z,812.20
2019-06-27T10:01:22.564Z,818.62
2019-06-27T10:03:48.652Z,788.52
2019-06-27T10:06:15.034Z,785.13
2019-06-27T10:08:41.444Z,781.78
2019-06-27T10:11:07.539Z,786.40
2019-06-27T10:13:33.636Z,795.30
2019-06-27T10:16:00.099Z,778.75
2019-06-27T10:18:26.374Z,854.67
2019-06-27T10:20:52.801Z,789.55
2019-06-27T10:23:18.984Z,799.95
2019-06-27T10:25:46.668Z,789.23
2019-06-27T10:28:13.027Z,811.33
2019-06-27T10:30:39.198Z,812.95
2019-06-27T10:33:05.299Z,813.75
2019-06-27T10:35:31.360Z,788.60
2019-06-27T10:37:57.871Z,798.25
2019-06-27T10:40:24.160Z,797.00
2019-06-27T10:42:50.600Z,792.33
2019-06-27T10:45:17.052Z,782.62
2019-06-27T10:47:43.569Z,795.38
2019-06-27T10:50:10.451Z,826.62
2019-06-27T10:52:37.074Z,822.17
2019-06-27T10:55:04.458Z,820.35
2019-06-27T10:57:30.524Z,807.60
2019-06-27T10:59:56.957Z,816.27
2019-06-27T11:02:23.301Z,828.60
2019-06-27T11:04:49.724Z,810.15
2019-06-27T11:07:16.068Z,822.02
2019-06-27T11:09:42.175Z,806.50
2019-06-27T11:12:08.518Z,821.60
2019-06-27T11:14:34.950Z,797.50
2019-06-27T11:17:01.275Z,831.90
2019-06-27T11:19:29.556Z,799.90
2019-06-27T11:21:56.092Z,800.83
2019-06-27T11:24:22.342Z,815.55
2019-06-27T11:26:50.711Z,806.12
2019-06-27T11:29:17.127Z,820.35
2019-06-27T11:31:43.790Z,812.50
2019-06-27T11:34:19.281Z,833.30
2019-06-27T11:36:46.566Z,832.95
2019-06-27T11:39:15.467Z,854.92
2019-06-27T11:41:42.716Z,852.62
2019-06-27T11:44:09.765Z,849.17
2019-06-27T11:46:35.937Z,834.35
2019-06-27T11:49:02.020Z,800.40
2019-06-27T11:51:28.450Z,816.17
2019-06-27T11:53:54.889Z,780.98
2019-06-27T11:56:21.411Z,795.92
2019-06-27T11:58:47.484Z,819.08
2019-06-27T12:01:13.877Z,822.57
2019-06-27T12:03:49.469Z,841.62
2019-06-27T12:06:08.280Z,815.85
2019-06-27T12:08:34.728Z,834.67
2019-06-27T12:11:00.912Z,826.65
2019-06-27T12:13:27.364Z,829.83
2019-06-27T12:15:53.437Z,824.38
2019-06-27T12:18:20.036Z,793.52
2019-06-27T12:20:46.484Z,820.17
2019-06-27T12:23:12.560Z,831.27
2019-06-27T12:25:38.684Z,834.02
2019-06-27T12:28:05.147Z,815.53
2019-06-27T12:30:31.599Z,815.92
2019-06-27T12:32:58.121Z,843.22
2019-06-27T12:35:24.208Z,844.43
2019-06-27T12:37:50.682Z,877.92
2019-06-27T12:40:17.383Z,854.92
2019-06-27T12:42:43.845Z,878.42
2019-06-27T12:45:10.135Z,910.53
2019-06-27T12:47:36.622Z,932.50
2019-06-27T12:50:05.604Z,908.33
2019-06-27T12:52:31.686Z,938.30
2019-06-27T12:54:58.076Z,920.37
2019-06-27T12:57:24.601Z,892.47
2019-06-27T12:59:51.032Z,764.13
2019-06-27T13:02:17.465Z,673.27
2019-06-27T13:04:43.801Z,805.63
2019-06-27T13:07:10.227Z,929.00
2019-06-27T13:09:36.667Z,960.10
2019-06-27T13:12:03.844Z,918.10
2019-06-27T13:14:30.283Z,951.57
2019-06-27T13:16:56.448Z,944.40
2019-06-27T13:19:22.519Z,899.63
2019-06-27T13:21:48.932Z,898.60
2019-06-27T13:24:15.016Z,885.10
2019-06-27T13:26:41.393Z,891.27
2019-06-27T13:29:07.500Z,937.67
2019-06-27T13:31:33.948Z,898.63
2019-06-27T13:34:00.284Z,894.07
2019-06-27T13:36:26.718Z,905.17
2019-06-27T13:38:53.148Z,868.30
2019-06-27T13:41:19.577Z,904.80
2019-06-27T13:43:49.104Z,908.37
2019-06-27T13:46:13.989Z,926.60
2019-06-27T13:48:40.424Z,939.23
2019-06-27T13:51:06.954Z,962.50
2019-06-27T13:53:33.212Z,604.83
2019-06-27T13:55:59.417Z,622.27
2019-06-27T13:58:25.503Z,718.27
2019-06-27T14:00:51.584Z,618.07
2019-06-27T14:03:17.989Z,760.30
2019-06-27T14:05:44.428Z,929.70
2019-06-27T14:08:10.507Z,761.93
2019-06-27T14:10:36.688Z,938.07
2019-06-27T14:13:03.315Z,777.93
2019-06-27T14:15:29.749Z,855.00
2019-06-27T14:17:56.187Z,708.20
2019-06-27T14:20:22.611Z,679.13
2019-06-27T14:22:48.676Z,697.00
2019-06-27T14:25:15.083Z,721.13
2019-06-27T14:27:41.157Z,719.10
2019-06-27T14:30:08.347Z,749.30
2019-06-27T14:32:34.784Z,726.40
2019-06-27T14:35:14.618Z,755.73
2019-06-27T14:37:29.492Z,723.43
2019-06-27T14:39:56.659Z,710.57
2019-06-27T14:42:23.274Z,694.30
2019-06-27T14:44:49.733Z,974.80
2019-06-27T14:47:15.825Z,998.93
2019-06-27T14:49:42.274Z,999.90
2019-06-27T14:52:08.353Z,999.90
2019-06-27T14:54:34.725Z,999.90
2019-06-27T14:57:00.871Z,999.90
2019-06-27T14:59:26.932Z,999.90
2019-06-27T15:01:53.308Z,999.90
2019-06-27T15:04:19.745Z,999.90
2019-06-27T15:06:46.171Z,994.10
2019-06-27T15:09:12.503Z,989.20
2019-06-27T15:11:38.935Z,954.47
2019-06-27T15:14:05.280Z,982.10
2019-06-27T15:16:31.712Z,959.03
2019-06-27T15:18:58.136Z,982.33
2019-06-27T15:21:24.464Z,965.70
2019-06-27T15:23:50.914Z,926.50
2019-06-27T15:26:17.332Z,981.33
2019-06-27T15:28:43.670Z,973.97
2019-06-27T15:31:09.848Z,935.73
2019-06-27T15:33:35.973Z,959.37
2019-06-27T15:36:02.353Z,970.40
2019-06-27T15:38:28.780Z,951.87
2019-06-27T15:40:55.737Z,980.87
2019-06-27T15:43:22.108Z,958.77
2019-06-27T15:45:48.489Z,973.70
2019-06-27T15:48:14.919Z,995.33
2019-06-27T15:50:41.358Z,981.90
2019-06-27T15:53:07.705Z,999.90
2019-06-27T15:55:34.124Z,677.37
2019-06-27T15:58:00.656Z,683.03
2019-06-27T16:00:26.992Z,804.37
2019-06-27T16:02:53.379Z,669.27
2019-06-27T16:05:19.629Z,679.07
2019-06-27T16:07:46.183Z,705.77
2019-06-27T16:10:12.527Z,699.27
2019-06-27T16:12:38.948Z,639.47
2019-06-27T16:15:05.562Z,652.77
2019-06-27T16:17:32.020Z,952.93
2019-06-27T16:19:58.100Z,845.93
2019-06-27T16:22:24.509Z,887.97
2019-06-27T16:24:51.323Z,982.77
2019-06-27T16:27:17.857Z,995.57
2019-06-27T16:29:43.940Z,949.47
2019-06-27T16:32:10.316Z,902.37
2019-06-27T16:34:36.779Z,988.53
2019-06-27T16:37:03.204Z,999.90
2019-06-27T16:39:29.637Z,999.90
2019-06-27T16:41:55.720Z,996.83
2019-06-27T16:44:21.789Z,999.90
2019-06-27T16:46:48.196Z,999.90
2019-06-27T16:49:14.631Z,999.90
2019-06-27T16:51:41.164Z,999.90
2019-06-27T16:54:07.704Z,968.07
2019-06-27T16:56:34.032Z,974.53
2019-06-27T16:59:00.464Z,993.13
2019-06-27T17:01:26.900Z,976.93
2019-06-27T17:03:53.327Z,999.90
2019-06-27T17:06:21.007Z,951.23
2019-06-27T17:08:47.424Z,967.87
2019-06-27T17:11:13.757Z,962.83
2019-06-27T17:13:39.832Z,950.10
2019-06-27T17:16:06.226Z,924.80
2019-06-27T17:18:32.748Z,919.60
2019-06-27T17:20:59.182Z,902.70
2019-06-27T17:23:25.267Z,878.40
2019-06-27T17:25:51.644Z,870.70
2019-06-27T17:28:17.715Z,853.47
2019-06-27T17:30:44.205Z,840.03
2019-06-27T17:33:10.293Z,814.55
2019-06-27T17:35:36.682Z,803.37
2019-06-27T17:38:02.933Z,772.55
2019-06-27T17:40:29.105Z,784.55
2019-06-27T17:42:55.549Z,751.67
2019-06-27T17:45:21.727Z,745.08
2019-06-27T17:47:47.818Z,737.52
2019-06-27T17:50:14.649Z,712.52
2019-06-27T17:52:40.745Z,712.12
2019-06-27T17:55:08.437Z,730.83
2019-06-27T17:57:34.538Z,682.67
2019-06-27T18:00:00.994Z,666.42
2019-06-27T18:02:27.439Z,648.35
2019-06-27T18:04:53.956Z,645.42
2019-06-27T18:07:20.050Z,671.72
2019-06-27T18:09:46.231Z,641.70
2019-06-27T18:12:12.562Z,656.33
2019-06-27T18:14:38.971Z,636.85
2019-06-27T18:17:05.299Z,614.85
2019-06-27T18:19:31.735Z,652.33
2019-06-27T18:21:58.071Z,608.70
2019-06-27T18:24:24.535Z,540.52
2019-06-27T18:26:50.705Z,573.55
2019-06-27T18:29:17.096Z,604.25
2019-06-27T18:31:43.598Z,607.88
2019-06-27T18:34:09.659Z,650.30
2019-06-27T18:36:36.063Z,609.77
2019-06-27T18:39:03.529Z,553.52
2019-06-27T18:41:30.057Z,586.30
2019-06-27T18:43:56.584Z,595.62
2019-06-27T18:46:23.059Z,585.73
2019-06-27T18:48:51.906Z,580.55
2019-06-27T18:51:17.732Z,551.87
2019-06-27T18:53:43.916Z,583.27
2019-06-27T18:56:10.291Z,595.55
2019-06-27T18:58:36.635Z,587.92
2019-06-27T19:01:03.357Z,583.65
2019-06-27T19:03:29.788Z,553.23
2019-06-27T19:05:56.225Z,570.83
2019-06-27T19:08:22.315Z,583.90
2019-06-27T19:10:48.399Z,600.98
2019-06-27T19:13:14.839Z,480.70
2019-06-27T19:15:41.340Z,513.45
2019-06-27T19:18:09.579Z,561.23
2019-06-27T19:20:43.636Z,507.02
2019-06-27T19:23:16.664Z,529.30
2019-06-27T19:25:50.746Z,462.23
2019-06-27T19:28:17.172Z,467.35
2019-06-27T19:30:43.609Z,477.47
2019-06-27T19:33:10.169Z,491.60
2019-06-27T19:35:36.690Z,524.58
2019-06-27T19:38:03.181Z,478.50
2019-06-27T19:40:29.855Z,515.10
2019-06-27T19:42:55.935Z,496.65
2019-06-27T19:45:22.716Z,496.15
2019-06-27T19:47:49.143Z,434.93
2019-06-27T19:50:15.828Z,470.60
2019-06-27T19:52:41.931Z,529.80
2019-06-27T19:55:09.491Z,498.10
2019-06-27T19:57:36.039Z,480.45
2019-06-27T20:00:04.338Z,551.55
2019-06-27T20:02:30.739Z,578.55
2019-06-27T20:04:56.905Z,545.42
2019-06-27T20:07:23.275Z,543.25
2019-06-27T20:09:49.612Z,591.73
2019-06-27T20:12:18.845Z,553.15
2019-06-27T20:14:45.084Z,569.02
2019-06-27T20:17:11.582Z,593.95
2019-06-27T20:19:40.414Z,568.10
2019-06-27T20:22:08.020Z,562.80
2019-06-27T20:24:34.382Z,532.70
2019-06-27T20:27:01.285Z,458.20
2019-06-27T20:29:31.017Z,491.80
2019-06-27T20:32:08.642Z,484.52
2019-06-27T20:34:35.055Z,479.38
2019-06-27T20:37:02.907Z,515.28
2019-06-27T20:39:31.177Z,443.20
2019-06-27T20:41:57.920Z,441.90
2019-06-27T20:44:24.559Z,447.30
2019-06-27T20:46:51.716Z,451.43
2019-06-27T20:49:18.443Z,424.75
2019-06-27T20:51:47.648Z,402.20
2019-06-27T20:54:17.460Z,414.25
2019-06-27T20:56:44.693Z,493.25
2019-06-27T20:59:11.144Z,466.08
2019-06-27T21:01:37.472Z,431.05
2019-06-27T21:04:03.553Z,416.42
2019-06-27T21:06:30.032Z,479.77
2019-06-27T21:08:56.101Z,500.85
2019-06-27T21:11:22.201Z,462.42
2019-06-27T21:13:48.264Z,454.98
2019-06-27T21:16:14.659Z,400.48
2019-06-27T21:18:41.072Z,387.95
2019-06-27T21:21:07.401Z,418.05
2019-06-27T21:23:33.849Z,406.13
2019-06-27T21:26:00.392Z,439.43
2019-06-27T21:28:26.722Z,451.48
2019-06-27T21:30:53.139Z,441.45
2019-06-27T21:33:19.700Z,445.90
2019-06-27T21:35:46.204Z,411.55
2019-06-27T21:38:14.676Z,430.80
2019-06-27T21:40:41.065Z,411.20
2019-06-27T21:43:07.204Z,334.27
2019-06-27T21:45:33.281Z,359.80
2019-06-27T21:47:59.747Z,333.73
2019-06-27T21:50:26.139Z,328.32
2019-06-27T21:52:52.576Z,321.05
2019-06-27T21:55:18.862Z,313.52
2019-06-27T21:57:45.331Z,317.10
2019-06-27T22:00:12.193Z,375.15
2019-06-27T22:02:38.264Z,318.20
2019-06-27T22:05:08.628Z,303.88
2019-06-27T22:07:35.065Z,310.43
2019-06-27T22:10:01.461Z,285.55
2019-06-27T22:12:27.932Z,277.93
2019-06-27T22:14:53.992Z,278.45
2019-06-27T22:17:20.392Z,299.30
2019-06-27T22:19:46.556Z,314.98
2019-06-27T22:22:12.654Z,307.67
2019-06-27T22:24:39.069Z,314.95
2019-06-27T22:27:05.508Z,283.50
2019-06-27T22:29:31.954Z,303.75
2019-06-27T22:31:58.129Z,314.05
2019-06-27T22:34:24.596Z,324.67
2019-06-27T22:36:50.660Z,330.90
2019-06-27T22:39:40.417Z,322.07
2019-06-27T22:42:23.337Z,299.77
2019-06-27T22:45:16.651Z,330.83
2019-06-27T22:48:01.293Z,309.55
2019-06-27T22:50:46.449Z,310.68
2019-06-27T22:53:14.689Z,279.57
2019-06-27T22:55:41.024Z,293.30
2019-06-27T22:58:07.763Z,287.82
2019-06-27T23:00:34.084Z,303.32
2019-06-27T23:03:00.417Z,291.05
2019-06-27T23:05:26.745Z,269.48
2019-06-27T23:07:52.784Z,275.87
2019-06-27T23:10:18.836Z,275.70
2019-06-27T23:12:45.241Z,299.32
2019-06-27T23:15:11.779Z,251.40
2019-06-27T23:17:38.210Z,248.50
2019-06-27T23:20:04.948Z,258.73
2019-06-27T23:22:31.381Z,272.75
2019-06-27T23:24:57.811Z,266.12
2019-06-27T23:27:24.249Z,275.27
2019-06-27T23:29:50.654Z,272.15
2019-06-27T23:32:17.422Z,294.75
2019-06-27T23:34:43.523Z,331.80
2019-06-27T23:37:09.986Z,319.68
2019-06-27T23:39:36.413Z,303.18
2019-06-27T23:42:02.765Z,338.65
2019-06-27T23:44:29.203Z,322.55
2019-06-27T23:46:55.732Z,316.08
2019-06-27T23:49:21.837Z,295.95
2019-06-27T23:51:48.272Z,335.10
2019-06-27T23:54:14.719Z,308.27
2019-06-27T23:56:41.144Z,318.35
2019-06-27T23:59:08.628Z,342.48
